createdAt,value
2017-06-09T13:20:07.382Z,932.63
2017-06-09T13:21:20.276Z,932.62
2017-06-09T13:22:33.026Z,932.61
2017-06-09T13:23:45.425Z,932.62
2017-06-09T13:24:57.828Z,932.64
2017-06-09T13:26:10.233Z,932.74
2017-06-09T13:27:22.647Z,932.74
2017-06-09T13:28:35.547Z,932.73
2017-06-09T13:29:48.445Z,932.77
2017-06-09T13:31:01.422Z,932.78
2017-06-09T13:32:13.881Z,932.73
2017-06-09T13:33:26.978Z,932.77
2017-06-09T13:34:39.383Z,932.81
2017-06-09T13:35:51.786Z,932.78
2017-06-09T13:37:04.683Z,932.82
2017-06-09T13:38:17.582Z,932.89
2017-06-09T13:39:30.476Z,932.9
2017-06-09T13:40:43.370Z,933
2017-06-09T13:41:55.772Z,933.04
2017-06-09T13:43:08.670Z,933.04
2017-06-09T13:44:21.073Z,933.08
2017-06-09T13:45:33.677Z,933
2017-06-09T13:46:46.573Z,933.03
2017-06-09T13:47:59.489Z,932.91
2017-06-09T13:49:11.894Z,932.81
2017-06-09T13:50:24.792Z,932.85
2017-06-09T13:51:37.688Z,932.8
2017-06-09T13:52:50.584Z,932.81
2017-06-09T13:54:02.985Z,932.73
2017-06-09T13:55:15.389Z,932.7
2017-06-09T13:56:28.485Z,932.81
2017-06-09T13:57:41.380Z,932.72
2017-06-09T13:58:53.302Z,932.74
2017-06-09T14:00:06.201Z,932.72
2017-06-09T14:01:18.607Z,932.68
2017-06-09T14:02:31.704Z,932.72
2017-06-09T14:03:44.108Z,932.78
2017-06-09T14:04:57.015Z,932.78
2017-06-09T14:06:09.914Z,932.75
2017-06-09T14:07:22.806Z,932.75
2017-06-09T14:08:35.702Z,932.78
2017-06-09T14:09:48.111Z,932.82
2017-06-09T14:11:01.010Z,932.86
2017-06-09T14:12:13.902Z,932.83
2017-06-09T14:13:26.799Z,932.87
2017-06-09T14:14:39.208Z,932.82
2017-06-09T14:15:51.614Z,932.82
2017-06-09T14:17:04.515Z,932.86
2017-06-09T14:18:16.925Z,932.9
2017-06-09T14:19:29.818Z,932.9
2017-06-09T14:20:42.712Z,932.91
2017-06-09T14:21:55.122Z,932.93
2017-06-09T14:23:07.046Z,932.97
2017-06-09T14:24:19.665Z,933
2017-06-09T14:25:32.557Z,933.03
2017-06-09T14:26:44.965Z,933.06
2017-06-09T14:27:57.370Z,932.97
2017-06-09T14:29:10.263Z,932.84
2017-06-09T14:30:22.669Z,932.8
2017-06-09T14:31:35.566Z,932.88
2017-06-09T14:32:47.981Z,932.82
2017-06-09T14:34:00.877Z,932.86
2017-06-09T14:35:13.594Z,932.94
2017-06-09T14:36:26.035Z,932.94
2017-06-09T14:37:38.929Z,932.95
2017-06-09T14:38:51.825Z,932.9
2017-06-09T14:40:04.231Z,932.79
2017-06-09T14:41:16.668Z,932.68
2017-06-09T14:42:29.568Z,932.65
2017-06-09T14:43:41.972Z,932.61
2017-06-09T14:44:54.881Z,932.58
2017-06-09T14:46:07.780Z,932.48
2017-06-09T14:47:20.186Z,932.45
2017-06-09T14:48:32.601Z,932.52
2017-06-09T14:49:45.591Z,932.56
2017-06-09T14:50:58.487Z,932.57
2017-06-09T14:52:11.385Z,932.58
2017-06-09T14:53:24.282Z,932.52
2017-06-09T14:54:37.176Z,932.46
2017-06-09T14:55:49.788Z,932.39
2017-06-09T14:57:02.685Z,932.37
2017-06-09T14:58:15.095Z,932.34
2017-06-09T14:59:27.017Z,932.4
2017-06-09T15:00:39.919Z,932.39
2017-06-09T15:01:52.813Z,932.35
2017-06-09T15:03:05.715Z,932.34
2017-06-09T15:04:18.126Z,932.31
2017-06-09T15:05:31.020Z,932.37
2017-06-09T15:06:44.135Z,932.32
2017-06-09T15:07:56.544Z,932.32
2017-06-09T15:09:09.451Z,932.23
2017-06-09T15:10:21.372Z,932.22
2017-06-09T15:11:33.985Z,932.15
2017-06-09T15:12:46.880Z,932.11
2017-06-09T15:13:59.773Z,932.06
2017-06-09T15:15:12.181Z,932.02
2017-06-09T15:16:24.588Z,932.06
2017-06-09T15:17:37.684Z,932.06
2017-06-09T15:18:50.580Z,932.02
2017-06-09T15:20:02.984Z,932.07
2017-06-09T15:21:15.892Z,931.95
2017-06-09T15:22:28.792Z,931.95
2017-06-09T15:23:41.693Z,931.99
2017-06-09T15:24:54.592Z,931.95
2017-06-09T15:26:06.999Z,931.97
2017-06-09T15:27:18.931Z,932.02
2017-06-09T15:28:32.033Z,931.99
2017-06-09T15:29:44.445Z,932
2017-06-09T15:30:57.368Z,931.94
2017-06-09T15:32:10.287Z,931.9
2017-06-09T15:33:22.913Z,931.84
2017-06-09T15:34:35.398Z,931.73
2017-06-09T15:35:47.977Z,931.73
2017-06-09T15:37:00.539Z,931.69
2017-06-09T15:38:13.628Z,931.77
2017-06-09T15:39:26.581Z,931.77
2017-06-09T15:40:39.615Z,931.89
2017-06-09T15:41:52.592Z,931.82
2017-06-09T15:43:05.530Z,931.88
2017-06-09T15:44:17.528Z,931.93
2017-06-09T15:45:29.464Z,931.93
2017-06-09T15:46:42.381Z,932.03
2017-06-09T15:47:55.300Z,932.04
2017-06-09T15:49:08.218Z,932
2017-06-09T15:50:21.134Z,931.94
2017-06-09T15:51:34.051Z,931.89
2017-06-09T15:52:46.481Z,931.82
2017-06-09T15:53:59.412Z,931.81
2017-06-09T15:55:12.058Z,931.82
2017-06-09T15:56:24.975Z,931.76
2017-06-09T15:57:37.399Z,931.72
2017-06-09T15:58:50.332Z,931.65
2017-06-09T16:00:03.253Z,931.6
2017-06-09T16:01:15.206Z,931.65
2017-06-09T16:02:28.126Z,931.64
2017-06-09T16:03:41.041Z,931.63
2017-06-09T16:04:53.966Z,931.63
2017-06-09T16:06:05.908Z,931.64
2017-06-09T16:07:18.858Z,931.6
2017-06-09T16:08:31.777Z,931.48
2017-06-09T16:09:44.204Z,931.47
2017-06-09T16:10:57.120Z,931.48
2017-06-09T16:12:10.036Z,931.5
2017-06-09T16:13:22.949Z,931.48
2017-06-09T16:14:35.847Z,931.56
2017-06-09T16:15:48.629Z,931.54
2017-06-09T16:17:01.611Z,931.61
2017-06-09T16:18:14.393Z,931.6
2017-06-09T16:19:27.186Z,931.65
2017-06-09T16:20:39.483Z,931.67
2017-06-09T16:21:51.781Z,931.73
2017-06-09T16:23:04.764Z,931.73
2017-06-09T16:24:17.557Z,931.76
2017-06-09T16:25:30.340Z,931.81
2017-06-09T16:26:42.647Z,931.81
2017-06-09T16:27:55.102Z,931.72
2017-06-09T16:29:07.915Z,931.7
2017-06-09T16:30:20.219Z,931.62
2017-06-09T16:31:33.208Z,931.64
2017-06-09T16:32:45.996Z,931.73
2017-06-09T16:33:58.787Z,931.72
2017-06-09T16:35:11.095Z,931.79
2017-06-09T16:36:23.394Z,931.81
2017-06-09T16:37:36.375Z,931.74
2017-06-09T16:38:48.192Z,931.83
2017-06-09T16:40:00.991Z,931.94
2017-06-09T16:41:13.777Z,931.92
2017-06-09T16:42:26.760Z,931.83
2017-06-09T16:43:39.543Z,931.77
2017-06-09T16:44:52.329Z,931.72
2017-06-09T16:46:04.654Z,931.74
2017-06-09T16:47:17.434Z,931.78
2017-06-09T16:48:30.217Z,931.74
2017-06-09T16:49:43.026Z,931.81
2017-06-09T16:50:55.814Z,931.84
2017-06-09T16:52:08.592Z,931.69
2017-06-09T16:53:20.408Z,931.73
2017-06-09T16:54:33.190Z,931.76
2017-06-09T16:55:45.970Z,931.65
2017-06-09T16:56:58.272Z,931.69
2017-06-09T16:58:09.611Z,931.6
2017-06-09T16:59:22.411Z,931.61
2017-06-09T17:00:34.829Z,931.55
2017-06-09T17:01:47.736Z,931.67
2017-06-09T17:03:00.155Z,931.65
2017-06-09T17:04:13.061Z,931.68
2017-06-09T17:05:25.991Z,931.67
2017-06-09T17:06:38.890Z,931.7
2017-06-09T17:07:51.783Z,931.68
2017-06-09T17:09:04.685Z,931.63
2017-06-09T17:10:17.788Z,931.64
2017-06-09T17:11:30.682Z,931.49
2017-06-09T17:12:43.581Z,931.61
2017-06-09T17:13:56.475Z,931.69
2017-06-09T17:39:51.139Z,931.98
2017-06-09T17:41:04.143Z,931.96
2017-06-09T17:42:17.125Z,932.02
2017-06-09T17:43:29.613Z,932.02
2017-06-09T17:44:42.599Z,932.03
2017-06-09T17:45:55.309Z,931.97
2017-06-09T17:47:08.310Z,931.85
2017-06-09T17:48:20.815Z,931.87
2017-06-09T17:49:33.819Z,931.84
2017-06-09T17:50:46.326Z,931.93
2017-06-09T17:51:59.532Z,931.99
2017-06-09T17:53:12.033Z,931.96
2017-06-09T17:54:25.039Z,932.05
2017-06-09T17:55:37.544Z,931.97
2017-06-09T17:56:50.541Z,931.97
2017-06-09T17:58:03.540Z,931.91
2017-06-09T17:59:15.522Z,931.96
2017-06-09T18:00:28.441Z,931.97
2017-06-09T18:01:41.358Z,931.97
2017-06-09T18:02:54.472Z,931.98
2017-06-09T18:04:06.411Z,931.88
2017-06-09T18:05:18.840Z,931.8
2017-06-09T18:06:31.755Z,931.85
2017-06-09T18:07:44.672Z,931.89
2017-06-09T18:08:57.586Z,931.91
2017-06-09T18:10:10.507Z,931.95
2017-06-09T18:11:22.940Z,931.97
2017-06-09T18:12:35.859Z,932.11
2017-06-09T18:13:48.290Z,932.06
2017-06-09T18:15:01.208Z,932.08
2017-06-09T18:16:14.127Z,932.03
2017-06-09T18:17:27.053Z,932.03
2017-06-09T18:18:39.477Z,931.95
2017-06-09T18:19:52.398Z,931.88
2017-06-09T18:21:04.829Z,931.87
2017-06-09T18:22:17.745Z,931.83
2017-06-09T18:23:29.687Z,931.83
2017-06-09T18:24:42.115Z,931.89
2017-06-09T18:25:54.550Z,931.85
2017-06-09T18:27:07.465Z,931.79
2017-06-09T18:28:19.896Z,931.84
2017-06-09T18:29:32.798Z,931.96
2017-06-09T18:30:44.614Z,931.98
2017-06-09T18:31:57.393Z,932.09
2017-06-09T18:33:10.174Z,932.18
2017-06-09T18:34:22.473Z,932.17
2017-06-09T18:35:34.774Z,932.16
2017-06-09T18:36:47.070Z,932.23
2017-06-09T18:37:58.914Z,932.23
2017-06-09T18:39:11.698Z,932.25
2017-06-09T18:40:24.492Z,932.3
2017-06-09T18:41:36.803Z,932.4
2017-06-09T18:42:49.101Z,932.39
2017-06-09T18:44:01.399Z,932.48
2017-06-09T18:45:14.184Z,932.44
2017-06-09T18:46:27.462Z,932.49
2017-06-09T18:47:40.245Z,932.51
2017-06-09T18:48:53.030Z,932.51
2017-06-09T18:50:05.812Z,932.57
2017-06-09T18:51:18.332Z,932.58
2017-06-09T18:52:31.111Z,932.54
2017-06-09T18:53:43.893Z,932.61
2017-06-09T18:54:56.196Z,932.57
2017-06-09T18:56:08.977Z,932.55
2017-06-09T18:57:21.477Z,932.54
2017-06-09T18:58:34.267Z,932.52
2017-06-09T18:59:47.054Z,932.49
2017-06-09T19:00:59.839Z,932.53
2017-06-09T19:02:12.822Z,932.37
2017-06-09T19:03:25.129Z,932.45
2017-06-09T19:04:37.913Z,932.46
2017-06-09T19:05:50.221Z,932.47
2017-06-09T19:07:03.001Z,932.47
2017-06-09T19:08:15.782Z,932.43
2017-06-09T19:09:28.564Z,932.42
2017-06-09T19:10:41.343Z,932.44
2017-06-09T19:11:54.124Z,932.48
2017-06-09T19:13:06.140Z,932.4
2017-06-09T19:14:18.440Z,932.46
2017-06-09T19:15:31.233Z,932.52
2017-06-09T19:16:44.019Z,932.55
2017-06-09T19:17:56.800Z,932.49
2017-06-09T19:19:09.297Z,932.46
2017-06-09T19:20:22.079Z,932.5
2017-06-09T19:21:34.858Z,932.49
2017-06-09T19:22:46.681Z,932.44
2017-06-09T19:23:59.477Z,932.4
2017-06-09T19:25:12.254Z,932.31
2017-06-09T19:26:25.054Z,932.29
2017-06-09T19:27:37.836Z,932.3
2017-06-09T19:28:50.624Z,932.15
2017-06-09T19:30:03.507Z,932.07
2017-06-09T19:31:15.322Z,932.14
2017-06-09T19:32:28.105Z,932.05
2017-06-09T19:33:40.910Z,932.14
2017-06-09T19:34:53.895Z,932.17
2017-06-09T19:36:06.193Z,932.18
2017-06-09T19:37:18.490Z,932.23
2017-06-09T19:38:31.268Z,932.25
2017-06-09T19:39:44.048Z,932.23
2017-06-09T19:40:56.849Z,932.24
2017-06-09T19:42:09.146Z,932.25
2017-06-09T19:43:21.449Z,932.23
2017-06-09T19:44:34.231Z,932.17
2017-06-09T19:45:50.056Z,932.15
2017-06-09T19:47:02.835Z,932.15
2017-06-09T19:48:15.620Z,932.11
2017-06-09T19:49:27.915Z,932.35
2017-06-09T19:50:40.696Z,932.46
2017-06-09T19:51:53.676Z,932.52
2017-06-09T19:53:05.974Z,932.43
2017-06-09T19:54:18.755Z,932.57
2017-06-09T19:55:31.054Z,932.45
2017-06-09T19:56:43.850Z,932.55
2017-06-09T19:57:56.147Z,932.67
2017-06-09T19:59:08.458Z,932.66
2017-06-09T20:00:21.357Z,932.8
2017-06-09T20:01:34.262Z,932.91
2017-06-09T20:02:47.159Z,932.93
2017-06-09T20:04:00.055Z,933.06
2017-06-09T20:05:12.458Z,933.04
2017-06-09T20:06:24.872Z,933.24
2017-06-09T20:07:37.774Z,933.31
2017-06-09T20:08:50.670Z,933.42
2017-06-09T20:10:03.567Z,933.33
2017-06-09T20:11:15.975Z,933.29
2017-06-09T20:12:28.871Z,933.23
2017-06-09T20:13:41.769Z,933.12
2017-06-09T20:14:54.178Z,932.98
2017-06-09T20:16:07.084Z,933.15
2017-06-09T20:17:19.984Z,933.14
2017-06-09T20:18:33.074Z,933.13
2017-06-09T20:19:45.482Z,933.12
2017-06-09T20:20:58.381Z,933.13
2017-06-09T20:22:10.793Z,933.16
2017-06-09T20:23:23.692Z,933.15
2017-06-09T20:24:36.591Z,933.14
2017-06-09T20:25:48.019Z,933.34
2017-06-09T20:27:00.426Z,933.57
2017-06-09T20:28:12.835Z,933.63
2017-06-09T20:29:25.247Z,933.6
2017-06-09T20:30:38.146Z,933.77
2017-06-09T20:31:51.044Z,933.88
2017-06-09T20:33:03.452Z,933.89
2017-06-09T20:34:16.346Z,933.89
2017-06-09T20:35:28.263Z,933.84
2017-06-09T20:36:41.157Z,933.74
2017-06-09T20:37:54.054Z,933.7
2017-06-09T20:39:06.485Z,933.72
2017-06-09T20:40:19.582Z,933.62
2017-06-09T20:41:32.482Z,933.42
2017-06-09T20:42:45.382Z,933.33
2017-06-09T20:43:57.786Z,933.19
2017-06-09T20:45:10.598Z,932.92
2017-06-09T20:46:22.897Z,933.02
2017-06-09T20:47:35.200Z,933.07
2017-06-09T20:48:47.495Z,933.11
2017-06-09T20:50:00.270Z,933.34
2017-06-09T20:51:11.606Z,933.6
2017-06-09T20:52:24.382Z,933.8
2017-06-09T20:53:37.358Z,933.84
2017-06-09T20:54:49.653Z,933.88
2017-06-09T20:56:02.432Z,933.78
2017-06-09T20:57:15.225Z,933.69
2017-06-09T20:58:28.002Z,933.68
2017-06-09T20:59:40.784Z,933.73
2017-06-09T21:00:54.370Z,933.77
2017-06-09T21:02:06.195Z,933.82
2017-06-09T21:03:18.974Z,933.85
2017-06-09T21:05:58.126Z,934.12
2017-06-09T21:07:10.449Z,934.17
2017-06-09T21:08:22.762Z,934.06
2017-06-09T21:09:35.542Z,933.82
2017-06-09T21:10:48.319Z,933.59
2017-06-09T21:12:01.103Z,933.5
2017-06-09T21:13:13.883Z,933.51
2017-06-09T21:14:26.677Z,933.57
2017-06-09T21:15:39.453Z,933.65
2017-06-09T21:16:52.229Z,933.77
2017-06-09T21:18:04.525Z,933.84
2017-06-09T21:19:16.819Z,933.85
2017-06-09T21:20:29.595Z,933.74
2017-06-09T21:21:41.893Z,933.94
2017-06-09T21:22:54.667Z,934.08
2017-06-09T21:24:07.453Z,934.04
2017-06-09T21:25:18.786Z,934.1
2017-06-09T21:26:31.565Z,934.11
2017-06-09T21:27:43.864Z,934.19
2017-06-09T21:28:56.644Z,934.2
2017-06-09T21:30:09.428Z,934.3
2017-06-09T21:31:22.212Z,934.42
2017-06-09T21:32:34.990Z,934.29
2017-06-09T21:33:47.294Z,934.36
2017-06-09T21:35:00.076Z,934.49
2017-06-09T21:36:12.853Z,934.52
2017-06-09T21:37:25.151Z,934.48
2017-06-09T21:38:36.965Z,934.53
2017-06-09T21:39:49.750Z,934.47
2017-06-09T21:41:02.527Z,934.56
2017-06-09T21:42:15.304Z,934.58
2017-06-09T21:43:28.080Z,934.57
2017-06-09T21:44:40.378Z,934.76
2017-06-09T21:45:52.676Z,934.75
2017-06-09T21:47:05.454Z,934.71
2017-06-09T21:48:18.262Z,934.72
2017-06-09T21:49:31.042Z,934.86
2017-06-09T21:50:43.819Z,934.86
2017-06-09T21:51:56.597Z,934.7
2017-06-09T21:53:08.420Z,934.79
2017-06-09T21:54:21.195Z,934.8
2017-06-09T21:55:34.805Z,934.68
2017-06-09T21:56:46.645Z,934.56
2017-06-09T21:57:58.944Z,934.62
2017-06-09T21:59:11.244Z,934.62
2017-06-09T22:00:23.546Z,934.62
2017-06-09T22:01:36.327Z,934.58
2017-06-09T22:02:49.106Z,934.46
2017-06-09T22:04:01.885Z,934.28
2017-06-09T22:05:14.184Z,934.35
2017-06-09T22:06:26.963Z,934.42
2017-06-09T22:07:39.744Z,934.46
2017-06-09T22:08:52.519Z,934.55
2017-06-09T22:10:05.016Z,934.65
2017-06-09T22:11:16.826Z,934.78
2017-06-09T22:12:29.603Z,934.87
2017-06-09T22:13:42.380Z,934.92
2017-06-09T22:14:55.381Z,934.99
2017-06-09T22:16:07.811Z,935.07
2017-06-09T22:17:20.233Z,935.14
2017-06-09T22:18:33.149Z,935.19
2017-06-09T22:19:46.065Z,935.07
2017-06-09T22:20:58.984Z,935.26
2017-06-09T22:22:11.409Z,935.33
2017-06-09T22:23:24.325Z,935.31
2017-06-09T22:24:36.260Z,935.38
2017-06-09T22:25:48.888Z,935.32
2017-06-09T22:27:01.310Z,935.33
2017-06-09T22:28:13.732Z,935.32
2017-06-09T22:29:26.645Z,935.38
2017-06-09T22:30:39.556Z,935.41
2017-06-09T22:31:52.671Z,935.41
2017-06-09T22:33:05.589Z,935.39
2017-06-09T22:34:18.011Z,935.43
2017-06-09T22:35:30.438Z,935.38
2017-06-09T22:36:43.352Z,935.39
2017-06-09T22:37:56.270Z,935.39
2017-06-09T22:39:08.203Z,935.45
2017-06-09T22:40:20.628Z,935.48
2017-06-09T22:41:33.054Z,935.47
2017-06-09T22:42:45.184Z,935.4
2017-06-09T22:43:57.118Z,935.27
2017-06-09T22:45:10.038Z,935.32
2017-06-09T22:46:21.970Z,935.31
2017-06-09T22:47:35.082Z,935.4
2017-06-09T22:48:47.997Z,935.39
2017-06-09T22:50:00.911Z,935.43
2017-06-09T22:51:13.829Z,935.47
2017-06-09T22:52:26.254Z,935.5
2017-06-09T22:53:39.372Z,935.38
2017-06-09T22:54:52.291Z,935.28
2017-06-09T22:56:05.203Z,935.22
2017-06-09T22:57:17.629Z,935.19
2017-06-09T22:58:30.748Z,935.2
2017-06-09T22:59:42.739Z,935.31
2017-06-09T23:00:55.600Z,935.26
2017-06-09T23:02:08.463Z,935.36
2017-06-09T23:03:21.323Z,935.46
2017-06-09T23:04:34.185Z,935.54
2017-06-09T23:05:47.050Z,935.58
2017-06-09T23:06:59.421Z,935.51
2017-06-09T23:08:12.281Z,935.54
2017-06-09T23:09:25.140Z,935.49
2017-06-09T23:10:38.000Z,935.5
2017-06-09T23:11:50.373Z,935.49
2017-06-09T23:13:03.231Z,935.42
2017-06-09T23:14:15.603Z,935.58
2017-06-09T23:15:27.977Z,935.68
2017-06-09T23:16:40.835Z,935.65
2017-06-09T23:17:53.701Z,935.65
2017-06-09T23:19:06.558Z,935.7
2017-06-09T23:20:19.414Z,935.65
2017-06-09T23:21:32.279Z,935.73
2017-06-09T23:22:44.651Z,935.73
2017-06-09T23:23:57.508Z,935.7
2017-06-09T23:25:10.366Z,935.67
2017-06-09T23:26:23.423Z,935.59
2017-06-09T23:27:36.284Z,935.5
2017-06-09T23:28:48.661Z,935.59
2017-06-09T23:30:01.520Z,935.74
2017-06-09T23:31:14.095Z,935.74
2017-06-09T23:32:26.466Z,935.64
2017-06-09T23:33:39.243Z,935.59
2017-06-09T23:34:51.539Z,935.58
2017-06-09T23:36:03.832Z,935.59
2017-06-09T23:37:16.127Z,935.67
2017-06-09T23:38:28.430Z,935.78
2017-06-09T23:39:40.730Z,935.8
2017-06-09T23:40:53.505Z,935.79
2017-06-09T23:42:06.319Z,935.72
2017-06-09T23:43:19.124Z,935.69
2017-06-09T23:44:31.920Z,935.74
2017-06-09T23:45:44.242Z,935.69
2017-06-09T23:46:56.581Z,935.69
2017-06-09T23:48:09.358Z,935.79
2017-06-09T23:49:21.170Z,935.8
2017-06-09T23:50:33.468Z,935.74
2017-06-09T23:51:45.768Z,935.71
2017-06-09T23:52:58.542Z,935.73
2017-06-09T23:54:10.837Z,935.8
2017-06-09T23:55:23.613Z,935.82
2017-06-09T23:56:36.390Z,935.82
2017-06-09T23:57:48.692Z,935.9
2017-06-09T23:59:01.488Z,935.94
